createdAt,value
2024-05-09T00:00:18.444Z,9.30
2024-05-09T00:02:30.814Z,9.30
2024-05-09T00:04:35.887Z,9.30
2024-05-09T00:06:40.961Z,9.30
2024-05-09T00:08:43.040Z,9.20
2024-05-09T00:10:47.808Z,9.20
2024-05-09T00:12:55.890Z,9.20
2024-05-09T00:15:00.434Z,9.10
2024-05-09T00:17:05.098Z,9.10
2024-05-09T00:19:10.387Z,9.10
2024-05-09T00:21:16.944Z,9.10
2024-05-09T00:23:21.657Z,9.10
2024-05-09T00:25:26.848Z,9.00
2024-05-09T00:27:31.487Z,9.00
2024-05-09T00:29:38.676Z,9.00
2024-05-09T00:31:43.775Z,9.00
2024-05-09T00:33:48.553Z,8.90
2024-05-09T00:35:53.254Z,8.90
2024-05-09T00:37:59.187Z,8.80
2024-05-09T00:40:05.798Z,8.80
2024-05-09T00:42:11.903Z,8.70
2024-05-09T00:44:17.115Z,8.70
2024-05-09T00:46:24.519Z,8.70
2024-05-09T00:48:29.968Z,8.70
2024-05-09T00:50:37.418Z,8.70
2024-05-09T00:52:43.146Z,8.60
2024-05-09T00:54:48.063Z,8.60
2024-05-09T00:56:53.612Z,8.50
2024-05-09T00:58:58.597Z,8.50
2024-05-09T01:01:05.545Z,8.50
2024-05-09T01:03:14.371Z,8.50
2024-05-09T01:05:19.612Z,8.40
2024-05-09T01:07:24.233Z,8.40
2024-05-09T01:09:29.399Z,8.40
2024-05-09T01:11:39.520Z,8.30
2024-05-09T01:13:41.665Z,8.30
2024-05-09T01:15:48.031Z,8.30
2024-05-09T01:17:55.515Z,8.30
2024-05-09T01:20:04.251Z,8.30
2024-05-09T01:22:11.013Z,8.30
2024-05-09T01:24:18.349Z,8.20
2024-05-09T01:26:23.250Z,8.20
2024-05-09T01:28:28.439Z,8.30
2024-05-09T01:30:35.820Z,8.20
2024-05-09T01:32:42.169Z,8.20
2024-05-09T01:34:47.273Z,8.20
2024-05-09T01:36:49.620Z,8.20
2024-05-09T01:38:55.196Z,8.20
2024-05-09T01:41:03.256Z,8.10
2024-05-09T01:43:05.386Z,8.10
2024-05-09T01:45:10.898Z,8.10
2024-05-09T01:47:15.904Z,8.10
2024-05-09T01:49:20.626Z,8.10
2024-05-09T01:51:25.297Z,8.00
2024-05-09T01:53:30.388Z,8.10
2024-05-09T01:55:35.074Z,8.00
2024-05-09T01:57:42.526Z,8.00
2024-05-09T01:59:47.775Z,8.00
2024-05-09T02:01:56.888Z,8.00
2024-05-09T02:04:02.831Z,8.00
2024-05-09T02:06:08.606Z,7.90
2024-05-09T02:08:17.181Z,7.90
2024-05-09T02:10:26.585Z,7.90
2024-05-09T02:12:37.406Z,7.80
2024-05-09T02:14:44.658Z,7.70
2024-05-09T02:16:46.888Z,7.70
2024-05-09T02:18:52.387Z,7.70
2024-05-09T02:20:57.407Z,7.70
2024-05-09T02:23:03.599Z,7.60
2024-05-09T02:27:13.884Z,7.60
2024-05-09T02:29:19.118Z,7.50
2024-05-09T02:31:26.719Z,7.50
2024-05-09T02:33:31.574Z,7.50
2024-05-09T02:35:33.942Z,7.50
2024-05-09T02:37:39.048Z,7.50
2024-05-09T02:39:41.371Z,7.40
2024-05-09T02:41:46.191Z,7.40
2024-05-09T02:43:48.626Z,7.40
2024-05-09T02:45:54.191Z,7.40
2024-05-09T02:47:59.127Z,7.40
2024-05-09T02:50:05.980Z,7.30
2024-05-09T02:52:08.221Z,7.30
2024-05-09T02:54:13.687Z,7.30
2024-05-09T02:56:16.089Z,7.30
2024-05-09T02:58:20.801Z,7.30
2024-05-09T03:00:29.472Z,7.20
2024-05-09T03:02:45.503Z,7.20
2024-05-09T03:04:50.295Z,7.20
2024-05-09T03:06:55.226Z,7.20
2024-05-09T03:08:57.595Z,7.20
2024-05-09T03:11:02.648Z,7.10
2024-05-09T03:13:06.502Z,7.10
2024-05-09T03:15:11.523Z,7.10
2024-05-09T03:17:13.568Z,7.10
2024-05-09T03:19:18.674Z,7.00
2024-05-09T03:21:23.722Z,7.10
2024-05-09T03:23:28.658Z,7.10
2024-05-09T03:25:30.750Z,7.10
2024-05-09T03:27:35.971Z,7.20
2024-05-09T03:29:38.038Z,7.20
2024-05-09T03:31:43.367Z,7.20
2024-05-09T03:33:46.067Z,7.20
2024-05-09T03:35:51.070Z,7.20
2024-05-09T03:37:58.394Z,7.20
2024-05-09T03:40:05.578Z,7.20
2024-05-09T03:42:11.742Z,7.20
2024-05-09T03:44:14.723Z,7.10
2024-05-09T03:46:19.997Z,7.20
2024-05-09T03:48:22.410Z,7.20
2024-05-09T03:50:30.212Z,7.20
2024-05-09T03:52:39.106Z,7.10
2024-05-09T03:54:47.526Z,7.10
2024-05-09T03:56:52.303Z,7.10
2024-05-09T03:58:55.314Z,7.00
2024-05-09T04:01:00.042Z,7.00
2024-05-09T04:03:02.457Z,7.00
2024-05-09T04:05:07.984Z,7.00
2024-05-09T04:07:10.023Z,7.10
2024-05-09T04:09:14.624Z,7.10
2024-05-09T04:11:19.950Z,7.10
2024-05-09T04:13:24.642Z,7.10
2024-05-09T04:15:26.858Z,7.10
2024-05-09T04:17:32.306Z,7.20
2024-05-09T04:19:34.585Z,7.20
2024-05-09T04:21:39.487Z,7.20
2024-05-09T04:23:42.186Z,7.30
2024-05-09T04:25:47.507Z,7.20
2024-05-09T04:27:55.640Z,7.30
2024-05-09T04:30:00.961Z,7.30
2024-05-09T04:32:03.687Z,7.30
2024-05-09T04:34:08.713Z,7.30
2024-05-09T04:36:12.337Z,7.30
2024-05-09T04:38:17.050Z,7.40
2024-05-09T04:40:28.066Z,7.40
2024-05-09T04:42:38.252Z,7.50
2024-05-09T04:44:43.000Z,7.60
2024-05-09T04:46:47.727Z,7.70
2024-05-09T04:48:50.298Z,7.70
2024-05-09T04:50:55.434Z,7.80
2024-05-09T04:52:57.502Z,7.80
2024-05-09T04:55:02.568Z,7.80
2024-05-09T04:57:04.804Z,7.80
2024-05-09T04:59:09.530Z,7.90
2024-05-09T05:01:15.344Z,7.80
2024-05-09T05:03:20.372Z,7.90
2024-05-09T05:05:22.462Z,7.90
2024-05-09T05:07:27.498Z,7.90
2024-05-09T05:09:29.559Z,7.90
2024-05-09T05:11:34.325Z,8.00
2024-05-09T05:13:40.122Z,8.00
2024-05-09T05:15:46.435Z,8.10
2024-05-09T05:17:51.256Z,8.10
2024-05-09T05:19:56.819Z,8.20
2024-05-09T05:21:59.037Z,8.30
2024-05-09T05:24:03.665Z,8.40
2024-05-09T05:26:06.139Z,8.50
2024-05-09T05:28:11.081Z,8.60
2024-05-09T05:30:21.045Z,8.70
2024-05-09T05:32:31.064Z,8.80
2024-05-09T05:34:35.782Z,8.80
2024-05-09T05:36:40.713Z,8.90
2024-05-09T05:38:43.634Z,9.00
2024-05-09T05:40:50.698Z,9.10
2024-05-09T05:42:52.756Z,9.20
2024-05-09T05:44:57.772Z,9.30
2024-05-09T05:46:59.882Z,9.50
2024-05-09T05:49:04.582Z,9.60
2024-05-09T05:51:09.701Z,9.80
2024-05-09T05:53:14.592Z,9.90
2024-05-09T05:55:16.906Z,10.10
2024-05-09T05:57:22.399Z,10.20
2024-05-09T05:59:24.867Z,10.40
2024-05-09T06:01:29.500Z,10.50
2024-05-09T06:03:32.120Z,10.70
2024-05-09T06:05:35.717Z,10.90
2024-05-09T06:07:43.502Z,11.00
2024-05-09T06:09:48.211Z,11.20
2024-05-09T06:11:54.613Z,11.40
2024-05-09T06:13:56.757Z,11.50
2024-05-09T06:16:05.305Z,11.60
2024-05-09T06:18:08.413Z,11.70
2024-05-09T06:20:20.273Z,11.70
2024-05-09T06:22:29.286Z,11.80
2024-05-09T06:24:36.545Z,12.00
2024-05-09T06:26:41.919Z,12.20
2024-05-09T06:28:47.056Z,12.40
2024-05-09T06:30:49.144Z,12.60
2024-05-09T06:32:53.813Z,12.70
2024-05-09T06:34:56.559Z,12.90
2024-05-09T06:37:01.250Z,12.90
2024-05-09T06:39:03.449Z,12.90
2024-05-09T06:41:12.444Z,12.90
2024-05-09T06:43:17.556Z,12.90
2024-05-09T06:45:23.882Z,13.00
2024-05-09T06:47:26.376Z,13.10
2024-05-09T06:49:32.690Z,13.20
2024-05-09T06:51:36.432Z,13.20
2024-05-09T06:53:42.719Z,13.30
2024-05-09T06:55:44.933Z,13.40
2024-05-09T06:57:52.441Z,13.40
2024-05-09T06:59:59.568Z,13.50
2024-05-09T07:02:05.553Z,13.70
2024-05-09T07:04:07.831Z,13.70
2024-05-09T07:06:13.483Z,13.80
2024-05-09T07:08:15.772Z,13.90
2024-05-09T07:10:28.666Z,14.00
2024-05-09T07:12:35.323Z,14.10
2024-05-09T07:14:42.698Z,14.20
2024-05-09T07:16:44.719Z,14.30
2024-05-09T07:18:54.860Z,14.40
2024-05-09T07:20:57.298Z,14.50
2024-05-09T07:23:02.117Z,14.70
2024-05-09T07:25:05.352Z,14.70
2024-05-09T07:27:10.175Z,14.70
2024-05-09T07:29:12.445Z,14.90
2024-05-09T07:31:23.174Z,15.10
2024-05-09T07:33:25.665Z,15.20
2024-05-09T07:35:30.791Z,15.30
2024-05-09T07:37:33.710Z,15.40
2024-05-09T07:39:38.290Z,15.50
2024-05-09T07:41:41.835Z,15.60
2024-05-09T07:43:46.883Z,15.60
2024-05-09T07:45:53.558Z,15.60
2024-05-09T07:53:29.942Z,15.90
2024-05-09T07:54:38.787Z,15.90
2024-05-09T07:56:44.398Z,16.00
2024-05-09T07:58:46.575Z,16.10
2024-05-09T08:00:48.939Z,16.20
2024-05-09T08:02:54.154Z,16.30
2024-05-09T08:04:59.383Z,16.50
2024-05-09T08:07:04.208Z,16.60
2024-05-09T08:09:10.962Z,16.80
2024-05-09T08:11:19.655Z,16.90
2024-05-09T08:13:21.838Z,17.00
2024-05-09T08:15:27.036Z,17.10
2024-05-09T08:17:29.323Z,17.20
2024-05-09T08:19:34.940Z,17.20
2024-05-09T08:21:40.174Z,17.20
2024-05-09T08:23:44.881Z,17.30
2024-05-09T08:25:47.933Z,17.30
2024-05-09T08:27:53.136Z,17.50
2024-05-09T08:29:55.309Z,17.70
2024-05-09T08:32:00.326Z,18.00
2024-05-09T08:34:03.246Z,18.00
2024-05-09T08:36:08.738Z,18.10
2024-05-09T08:38:13.679Z,18.20
2024-05-09T08:40:27.289Z,18.40
2024-05-09T08:42:35.447Z,18.60
2024-05-09T08:44:40.667Z,18.50
2024-05-09T08:46:47.166Z,18.50
2024-05-09T08:48:54.532Z,18.60
2024-05-09T08:50:59.396Z,18.80
2024-05-09T08:53:04.911Z,18.90
2024-05-09T08:55:10.005Z,19.00
2024-05-09T08:57:15.972Z,19.10
2024-05-09T08:59:29.803Z,19.20
2024-05-09T09:01:37.978Z,19.40
2024-05-09T09:03:42.402Z,19.60
2024-05-09T09:05:56.009Z,19.80
2024-05-09T09:07:58.122Z,19.80
2024-05-09T09:10:07.044Z,19.80
2024-05-09T09:12:15.045Z,19.80
2024-05-09T09:14:19.649Z,19.80
2024-05-09T09:16:32.707Z,19.90
2024-05-09T09:18:38.010Z,20.20
2024-05-09T09:20:40.402Z,20.50
2024-05-09T09:22:45.969Z,20.70
2024-05-09T09:24:49.152Z,20.90
2024-05-09T09:26:53.842Z,21.00
2024-05-09T09:29:02.889Z,21.10
2024-05-09T09:31:08.161Z,21.10
2024-05-09T09:33:12.001Z,21.20
2024-05-09T09:35:17.178Z,21.30
2024-05-09T09:37:28.263Z,21.40
2024-05-09T09:39:35.596Z,21.30
2024-05-09T09:41:39.400Z,21.50
2024-05-09T09:43:46.803Z,21.40
2024-05-09T09:45:53.781Z,21.50
2024-05-09T09:47:59.958Z,21.40
2024-05-09T09:50:07.073Z,21.50
2024-05-09T09:52:15.518Z,21.60
2024-05-09T09:54:18.472Z,21.50
2024-05-09T09:56:24.598Z,21.40
2024-05-09T09:58:28.967Z,21.50
2024-05-09T10:00:34.901Z,21.70
2024-05-09T10:02:40.162Z,21.80
2024-05-09T10:04:45.016Z,21.90
2024-05-09T10:06:51.937Z,22.00
2024-05-09T10:08:57.281Z,22.20
2024-05-09T10:11:03.362Z,22.30
2024-05-09T10:13:09.087Z,22.20
2024-05-09T10:15:12.148Z,21.90
2024-05-09T10:17:16.912Z,21.70
2024-05-09T10:19:28.485Z,21.50
2024-05-09T10:21:34.012Z,21.40
2024-05-09T10:23:36.475Z,21.30
2024-05-09T10:25:38.616Z,21.50
2024-05-09T10:27:43.801Z,21.90
2024-05-09T10:29:52.602Z,22.00
2024-05-09T10:32:02.631Z,21.90
2024-05-09T10:34:05.689Z,21.60
2024-05-09T10:36:25.667Z,21.30
2024-05-09T10:38:27.860Z,21.10
2024-05-09T10:40:34.036Z,21.10
2024-05-09T10:42:39.666Z,21.20
2024-05-09T10:44:46.929Z,21.40
2024-05-09T10:46:50.261Z,21.60
2024-05-09T10:48:55.121Z,21.90
2024-05-09T10:50:57.557Z,22.00
2024-05-09T10:53:05.416Z,22.00
2024-05-09T10:55:07.648Z,21.80
2024-05-09T10:57:13.068Z,21.50
2024-05-09T10:59:15.573Z,21.20
2024-05-09T11:01:20.967Z,20.90
2024-05-09T11:03:23.924Z,20.80
2024-05-09T11:05:29.876Z,20.60
2024-05-09T11:07:33.239Z,20.50
2024-05-09T11:09:41.927Z,20.80
2024-05-09T11:11:44.848Z,21.00
2024-05-09T11:13:49.762Z,21.10
2024-05-09T11:15:52.019Z,21.30
2024-05-09T11:17:57.313Z,21.60
2024-05-09T11:20:00.295Z,22.10
2024-05-09T11:22:05.351Z,22.50
2024-05-09T11:24:11.019Z,22.90
2024-05-09T11:26:19.465Z,23.20
2024-05-09T11:28:22.831Z,23.30
2024-05-09T11:30:32.011Z,23.40
2024-05-09T11:32:37.974Z,23.50
2024-05-09T11:34:43.894Z,23.40
2024-05-09T11:36:46.472Z,23.50
2024-05-09T11:38:48.593Z,23.40
2024-05-09T11:40:53.596Z,23.30
2024-05-09T11:42:58.685Z,23.00
2024-05-09T11:45:04.042Z,22.50
2024-05-09T11:47:06.522Z,22.50
2024-05-09T11:49:12.317Z,22.60
2024-05-09T11:51:14.883Z,22.80
2024-05-09T11:53:19.796Z,22.90
2024-05-09T11:55:26.837Z,22.90
2024-05-09T11:57:32.865Z,22.70
2024-05-09T11:59:37.536Z,22.60
2024-05-09T12:01:43.106Z,22.70
2024-05-09T12:03:45.609Z,22.70
2024-05-09T12:05:50.425Z,22.90
2024-05-09T12:07:53.741Z,23.10
2024-05-09T12:09:58.664Z,23.20
2024-05-09T12:12:00.727Z,23.50
2024-05-09T12:14:06.540Z,23.40
2024-05-09T12:16:11.404Z,23.20
2024-05-09T12:18:16.366Z,23.00
2024-05-09T12:20:28.581Z,22.70
2024-05-09T12:22:40.203Z,22.40
2024-05-09T12:24:42.784Z,22.10
2024-05-09T12:26:48.091Z,21.90
2024-05-09T12:28:50.109Z,22.00
2024-05-09T12:30:54.834Z,22.20
2024-05-09T12:33:00.058Z,22.50
2024-05-09T12:35:04.796Z,22.90
2024-05-09T12:37:06.900Z,23.40
2024-05-09T12:39:12.548Z,23.70
2024-05-09T12:41:14.686Z,23.80
2024-05-09T12:43:20.407Z,24.00
2024-05-09T12:45:23.534Z,24.10
2024-05-09T12:47:28.529Z,24.20
2024-05-09T12:49:33.527Z,24.20
2024-05-09T12:51:38.908Z,24.20
2024-05-09T12:53:41.008Z,24.20
2024-05-09T12:55:53.560Z,24.20
2024-05-09T12:57:59.788Z,24.00
2024-05-09T13:00:05.753Z,23.90
2024-05-09T13:02:11.049Z,24.00
2024-05-09T13:04:16.496Z,24.20
2024-05-09T13:06:21.421Z,24.20
2024-05-09T13:08:26.433Z,24.10
2024-05-09T13:10:32.451Z,24.00
2024-05-09T13:12:38.409Z,23.90
2024-05-09T13:14:40.475Z,23.80
2024-05-09T13:16:45.909Z,23.80
2024-05-09T13:18:48.047Z,23.40
2024-05-09T13:20:52.938Z,23.10
2024-05-09T13:22:58.154Z,22.80
2024-05-09T13:25:02.897Z,22.50
2024-05-09T13:27:05.233Z,22.50
2024-05-09T13:29:10.487Z,22.60
2024-05-09T13:31:12.632Z,22.80
2024-05-09T13:33:17.378Z,23.00
2024-05-09T13:35:19.850Z,23.20
2024-05-09T13:37:24.574Z,23.30
2024-05-09T13:39:29.374Z,23.70
2024-05-09T13:41:34.680Z,23.90
2024-05-09T13:43:37.415Z,24.40
2024-05-09T13:45:44.425Z,25.10
2024-05-09T13:47:47.097Z,25.70
2024-05-09T13:49:52.237Z,25.90
2024-05-09T13:51:54.307Z,25.70
2024-05-09T13:53:59.393Z,25.50
2024-05-09T13:56:04.587Z,25.00
2024-05-09T13:58:09.927Z,24.90
2024-05-09T14:00:27.007Z,24.90
2024-05-09T14:02:37.941Z,24.80
2024-05-09T14:04:40.303Z,24.90
2024-05-09T14:06:45.801Z,25.00
2024-05-09T14:08:48.876Z,25.20
2024-05-09T14:10:54.201Z,25.30
2024-05-09T14:12:59.867Z,25.50
2024-05-09T14:15:04.642Z,25.70
2024-05-09T14:17:07.135Z,25.50
2024-05-09T14:19:12.364Z,25.20
2024-05-09T14:21:14.580Z,25.10
2024-05-09T14:23:20.763Z,24.90
2024-05-09T14:25:26.066Z,24.70
2024-05-09T14:27:32.199Z,24.60
2024-05-09T14:29:37.045Z,24.60
2024-05-09T14:31:42.065Z,24.90
2024-05-09T14:33:44.340Z,25.00
2024-05-09T14:35:49.510Z,25.40
2024-05-09T14:37:52.169Z,25.50
2024-05-09T14:39:57.517Z,25.60
2024-05-09T14:41:59.611Z,25.60
2024-05-09T14:44:04.600Z,25.70
2024-05-09T14:46:10.057Z,25.90
2024-05-09T14:48:19.787Z,25.90
2024-05-09T14:50:28.108Z,26.00
2024-05-09T14:52:39.870Z,26.00
2024-05-09T14:54:41.992Z,26.20
2024-05-09T14:56:47.148Z,26.30
2024-05-09T14:58:49.211Z,26.70
2024-05-09T15:00:53.909Z,26.90
2024-05-09T15:02:58.991Z,27.40
2024-05-09T15:05:04.989Z,27.70
2024-05-09T15:07:08.352Z,27.50
2024-05-09T15:09:15.374Z,27.20
2024-05-09T15:11:17.424Z,26.40
2024-05-09T15:13:23.054Z,25.60
2024-05-09T15:15:25.449Z,25.00
2024-05-09T15:17:30.728Z,24.40
2024-05-09T15:19:38.036Z,23.90
2024-05-09T15:21:43.400Z,23.50
2024-05-09T15:23:45.553Z,23.20
2024-05-09T15:25:50.270Z,23.00
2024-05-09T15:27:52.801Z,22.90
2024-05-09T15:29:57.392Z,23.10
2024-05-09T15:31:59.537Z,23.50
2024-05-09T15:34:05.029Z,24.20
2024-05-09T15:36:10.294Z,24.80
2024-05-09T15:38:16.331Z,25.40
2024-05-09T15:40:26.616Z,26.00
2024-05-09T15:42:42.675Z,26.60
2024-05-09T15:44:45.559Z,27.10
2024-05-09T15:46:51.975Z,27.40
2024-05-09T15:48:54.224Z,27.70
2024-05-09T15:50:58.971Z,28.00
2024-05-09T15:53:04.253Z,28.20
2024-05-09T15:55:10.469Z,28.50
2024-05-09T15:57:12.692Z,28.50
2024-05-09T15:59:17.796Z,28.50
2024-05-09T16:01:20.933Z,28.60
2024-05-09T16:03:26.932Z,28.50
2024-05-09T16:05:29.567Z,28.20
2024-05-09T16:07:34.978Z,27.80
2024-05-09T16:09:40.010Z,27.60
2024-05-09T16:11:45.161Z,27.70
2024-05-09T16:13:47.420Z,27.90
2024-05-09T16:15:52.169Z,28.20
2024-05-09T16:17:55.038Z,28.60
2024-05-09T16:19:59.731Z,28.70
2024-05-09T16:22:02.403Z,28.10
2024-05-09T16:24:08.053Z,27.20
2024-05-09T16:26:12.712Z,26.60
2024-05-09T16:28:17.441Z,26.30
2024-05-09T16:30:27.854Z,26.50
2024-05-09T16:32:40.795Z,27.10
2024-05-09T16:34:43.403Z,27.60
2024-05-09T16:36:51.067Z,28.20
2024-05-09T16:38:53.712Z,28.50
2024-05-09T16:40:58.479Z,28.70
2024-05-09T16:43:04.653Z,28.70
2024-05-09T16:45:11.332Z,28.70
2024-05-09T16:47:14.706Z,28.70
2024-05-09T16:49:19.878Z,28.70
2024-05-09T16:51:22.294Z,28.80
2024-05-09T16:53:27.736Z,28.70
2024-05-09T16:55:30.240Z,28.50
2024-05-09T16:57:35.042Z,28.10
2024-05-09T16:59:39.745Z,27.90
2024-05-09T17:01:44.998Z,28.00
2024-05-09T17:03:47.232Z,28.10
2024-05-09T17:05:52.078Z,28.30
2024-05-09T17:07:54.885Z,28.20
2024-05-09T17:09:59.495Z,28.40
2024-05-09T17:12:01.495Z,28.50
2024-05-09T17:14:07.210Z,28.30
2024-05-09T17:16:15.598Z,28.30
2024-05-09T17:18:17.835Z,28.00
2024-05-09T17:20:29.863Z,27.30
2024-05-09T17:22:36.316Z,26.40
2024-05-09T17:24:41.040Z,25.50
2024-05-09T17:26:43.586Z,24.80
2024-05-09T17:28:48.312Z,24.20
2024-05-09T17:30:50.450Z,23.60
2024-05-09T17:32:58.339Z,23.10
2024-05-09T17:35:00.657Z,22.80
2024-05-09T17:37:05.766Z,22.50
2024-05-09T17:39:08.274Z,22.30
2024-05-09T17:41:12.808Z,22.10
2024-05-09T17:43:14.889Z,21.90
2024-05-09T17:45:20.501Z,21.80
2024-05-09T17:47:23.210Z,21.60
2024-05-09T17:49:32.630Z,21.50
2024-05-09T17:51:35.852Z,21.40
2024-05-09T17:53:41.707Z,21.30
2024-05-09T17:55:46.490Z,21.20
2024-05-09T17:57:51.687Z,21.10
2024-05-09T17:59:53.995Z,21.00
2024-05-09T18:01:58.949Z,21.00
2024-05-09T18:04:01.635Z,20.90
2024-05-09T18:06:09.235Z,20.80
2024-05-09T18:08:11.242Z,20.70
2024-05-09T18:10:22.572Z,20.60
2024-05-09T18:12:31.744Z,20.50
2024-05-09T18:14:36.438Z,20.40
2024-05-09T18:16:39.503Z,20.30
2024-05-09T18:18:44.540Z,20.20
2024-05-09T18:20:46.826Z,20.10
2024-05-09T18:22:54.435Z,19.90
2024-05-09T18:24:56.484Z,19.90
2024-05-09T18:27:01.767Z,19.80
2024-05-09T18:29:04.931Z,19.70
2024-05-09T18:31:09.763Z,19.60
2024-05-09T18:33:12.856Z,19.50
2024-05-09T18:35:18.609Z,19.40
2024-05-09T18:37:21.018Z,19.30
2024-05-09T18:39:28.290Z,19.20
2024-05-09T18:41:30.792Z,19.10
2024-05-09T18:43:42.187Z,19.00
2024-05-09T18:45:47.692Z,18.90
2024-05-09T18:47:54.262Z,18.70
2024-05-09T18:49:56.767Z,18.50
2024-05-09T18:52:01.375Z,18.40
2024-05-09T18:54:03.963Z,18.20
2024-05-09T18:56:11.834Z,18.10
2024-05-09T18:58:13.976Z,17.90
2024-05-09T19:00:31.044Z,17.80
2024-05-09T19:02:37.772Z,17.70
2024-05-09T19:04:42.610Z,17.60
2024-05-09T19:06:45.327Z,17.50
2024-05-09T19:08:50.039Z,17.40
2024-05-09T19:10:52.637Z,17.30
2024-05-09T19:13:00.475Z,17.20
2024-05-09T19:15:02.609Z,17.10
2024-05-09T19:17:07.309Z,17.00
2024-05-09T19:19:09.979Z,16.90
2024-05-09T19:21:14.725Z,17.00
2024-05-09T19:23:16.745Z,16.90
2024-05-09T19:25:21.857Z,16.90
2024-05-09T19:27:24.253Z,16.70
2024-05-09T19:29:31.440Z,16.70
2024-05-09T19:31:33.986Z,16.60
2024-05-09T19:33:39.515Z,16.50
2024-05-09T19:35:41.967Z,16.40
2024-05-09T19:37:48.819Z,16.30
2024-05-09T19:39:50.906Z,16.20
2024-05-09T19:41:55.556Z,16.10
2024-05-09T19:43:57.971Z,16.10
2024-05-09T19:46:05.599Z,16.00
2024-05-09T19:48:08.340Z,16.00
2024-05-09T19:50:19.934Z,15.90
2024-05-09T19:52:28.788Z,15.80
2024-05-09T19:54:33.465Z,15.70
2024-05-09T19:56:35.984Z,15.70
2024-05-09T19:58:41.246Z,15.70
2024-05-09T20:00:44.473Z,15.60
2024-05-09T20:02:52.926Z,15.50
2024-05-09T20:04:55.337Z,15.40
2024-05-09T20:07:00.101Z,15.30
2024-05-09T20:09:02.610Z,15.20
2024-05-09T20:11:07.519Z,15.10
2024-05-09T20:13:09.610Z,15.00
2024-05-09T20:15:15.066Z,14.90
2024-05-09T20:17:17.073Z,14.90
2024-05-09T20:19:24.360Z,14.90
2024-05-09T20:21:26.810Z,14.80
2024-05-09T20:23:31.957Z,14.80
2024-05-09T20:25:34.034Z,14.70
2024-05-09T20:27:39.050Z,14.60
2024-05-09T20:29:41.066Z,14.50
2024-05-09T20:31:45.708Z,14.40
2024-05-09T20:33:48.316Z,14.40
2024-05-09T20:36:00.517Z,14.30
2024-05-09T20:38:04.435Z,14.30
2024-05-09T20:40:18.163Z,14.30
2024-05-09T20:42:26.919Z,14.20
2024-05-09T20:44:31.825Z,14.20
2024-05-09T20:46:34.339Z,14.20
2024-05-09T20:48:39.425Z,14.10
2024-05-09T20:50:42.856Z,14.10
2024-05-09T20:52:51.016Z,14.10
2024-05-09T20:54:53.096Z,14.00
2024-05-09T20:56:57.918Z,14.00
2024-05-09T20:59:00.279Z,13.90
2024-05-09T21:01:04.977Z,13.90
2024-05-09T21:03:07.775Z,13.80
2024-05-09T21:05:13.201Z,13.80
2024-05-09T21:07:15.450Z,13.70
2024-05-09T21:09:25.570Z,13.70
2024-05-09T21:11:28.900Z,13.60
2024-05-09T21:13:33.616Z,13.60
2024-05-09T21:15:36.387Z,13.60
2024-05-09T21:17:41.655Z,13.50
2024-05-09T21:19:43.938Z,13.50
2024-05-09T21:21:49.975Z,13.50
2024-05-09T21:23:52.951Z,13.40
2024-05-09T21:26:00.603Z,13.40
2024-05-09T21:28:03.254Z,13.30
2024-05-09T21:30:10.315Z,13.30
2024-05-09T21:32:21.036Z,13.30
2024-05-09T21:34:23.202Z,13.30
2024-05-09T21:36:28.549Z,13.30
2024-05-09T21:38:30.672Z,13.20
2024-05-09T21:40:36.688Z,13.20
2024-05-09T21:42:42.630Z,13.10
2024-05-09T21:44:47.261Z,13.10
2024-05-09T21:46:49.265Z,13.10
2024-05-09T21:48:54.777Z,13.00
2024-05-09T21:50:57.460Z,13.00
2024-05-09T21:53:02.072Z,13.00
2024-05-09T21:55:05.048Z,13.00
2024-05-09T21:57:09.999Z,12.90
2024-05-09T21:59:14.649Z,12.90
2024-05-09T22:01:19.800Z,12.80
2024-05-09T22:03:21.961Z,12.80
2024-05-09T22:05:26.935Z,12.70
2024-05-09T22:07:29.393Z,12.70
2024-05-09T22:09:34.300Z,12.60
2024-05-09T22:11:36.572Z,12.60
2024-05-09T22:13:42.108Z,12.50
2024-05-09T22:15:46.810Z,12.40
2024-05-09T22:17:51.797Z,12.40
2024-05-09T22:19:54.287Z,12.40
2024-05-09T22:22:00.030Z,12.30
2024-05-09T22:24:02.074Z,12.30
2024-05-09T22:26:07.570Z,12.30
2024-05-09T22:28:09.742Z,12.20
2024-05-09T22:30:17.526Z,12.20
2024-05-09T22:32:28.660Z,12.20
2024-05-09T22:34:30.849Z,12.20
2024-05-09T22:36:35.543Z,12.10
2024-05-09T22:38:37.939Z,12.10
2024-05-09T22:40:47.995Z,12.10
2024-05-09T22:42:51.837Z,12.00
2024-05-09T22:44:57.249Z,12.00
2024-05-09T22:46:59.627Z,12.00
2024-05-09T22:49:07.004Z,11.90
2024-05-09T22:51:12.718Z,11.90
2024-05-09T22:53:17.772Z,11.90
2024-05-09T22:55:19.810Z,11.90
2024-05-09T22:57:24.753Z,11.80
2024-05-09T22:59:29.356Z,11.80
2024-05-09T23:01:34.068Z,11.80
2024-05-09T23:03:39.269Z,11.70
2024-05-09T23:05:47.299Z,11.70
2024-05-09T23:07:49.328Z,11.70
2024-05-09T23:09:51.729Z,11.60
2024-05-09T23:11:56.434Z,11.60
2024-05-09T23:13:58.474Z,11.60
2024-05-09T23:16:01.281Z,11.60
2024-05-09T23:18:06.281Z,11.60
2024-05-09T23:20:11.616Z,11.50
2024-05-09T23:22:19.837Z,11.50
2024-05-09T23:24:21.970Z,11.40
2024-05-09T23:26:26.566Z,11.40
2024-05-09T23:28:29.133Z,11.40
2024-05-09T23:30:38.417Z,11.30
2024-05-09T23:32:42.661Z,11.20
2024-05-09T23:34:48.416Z,11.20
2024-05-09T23:36:50.440Z,11.20
2024-05-09T23:38:57.875Z,11.20
2024-05-09T23:41:00.694Z,11.10
2024-05-09T23:43:05.848Z,11.10
2024-05-09T23:45:08.499Z,11.00
2024-05-09T23:47:13.884Z,11.00
2024-05-09T23:49:15.954Z,11.00
2024-05-09T23:51:20.754Z,11.00
2024-05-09T23:53:23.235Z,11.00
2024-05-09T23:55:31.817Z,10.90
2024-05-09T23:57:34.171Z,10.90
2024-05-09T23:59:39.132Z,10.80
